sensor_id;sensor_type;location;lat;lon;timestamp;P1;durP1;ratioP1;P2;durP2;ratioP2
11245;SDS011;59870;50.106;8.580;2022-10-30T00:01:05;15.17;;;13.67;;
11245;SDS011;59870;50.106;8.580;2022-10-30T00:03:32;15.17;;;13.57;;
11245;SDS011;59870;50.106;8.580;2022-10-30T00:06:02;20.43;;;14.17;;
11245;SDS011;59870;50.106;8.580;2022-10-30T00:08:31;15.43;;;13.90;;
11245;SDS011;59870;50.106;8.580;2022-10-30T00:11:09;18.93;;;14.07;;
11245;SDS011;59870;50.106;8.580;2022-10-30T00:13:38;15.53;;;13.10;;
11245;SDS011;59870;50.106;8.580;2022-10-30T00:16:06;15.30;;;13.10;;
11245;SDS011;59870;50.106;8.580;2022-10-30T00:18:34;14.97;;;12.80;;
11245;SDS011;59870;50.106;8.580;2022-10-30T00:21:04;15.37;;;13.03;;
11245;SDS011;59870;50.106;8.580;2022-10-30T00:23:32;14.37;;;12.87;;
11245;SDS011;59870;50.106;8.580;2022-10-30T00:26:04;17.53;;;14.00;;
11245;SDS011;59870;50.106;8.580;2022-10-30T00:28:33;15.17;;;13.47;;
11245;SDS011;59870;50.106;8.580;2022-10-30T00:31:01;17.47;;;13.27;;
11245;SDS011;59870;50.106;8.580;2022-10-30T00:33:29;19.63;;;13.67;;
11245;SDS011;59870;50.106;8.580;2022-10-30T00:35:57;26.00;;;13.33;;
11245;SDS011;59870;50.106;8.580;2022-10-30T00:38:25;18.33;;;11.90;;
11245;SDS011;59870;50.106;8.580;2022-10-30T00:40:52;15.67;;;12.83;;
11245;SDS011;59870;50.106;8.580;2022-10-30T00:43:38;18.20;;;11.93;;
11245;SDS011;59870;50.106;8.580;2022-10-30T00:46:27;15.50;;;11.97;;
11245;SDS011;59870;50.106;8.580;2022-10-30T00:49:03;13.40;;;11.60;;
11245;SDS011;59870;50.106;8.580;2022-10-30T00:51:36;12.30;;;11.00;;
11245;SDS011;59870;50.106;8.580;2022-10-30T00:54:07;15.23;;;12.70;;
11245;SDS011;59870;50.106;8.580;2022-10-30T00:56:36;14.50;;;11.87;;
11245;SDS011;59870;50.106;8.580;2022-10-30T00:59:07;17.70;;;11.73;;
11245;SDS011;59870;50.106;8.580;2022-10-30T01:01:39;13.87;;;12.40;;
11245;SDS011;59870;50.106;8.580;2022-10-30T01:04:10;15.73;;;12.70;;
11245;SDS011;59870;50.106;8.580;2022-10-30T01:06:40;12.23;;;11.00;;
11245;SDS011;59870;50.106;8.580;2022-10-30T01:09:10;12.87;;;11.53;;
11245;SDS011;59870;50.106;8.580;2022-10-30T01:11:38;17.27;;;12.17;;
11245;SDS011;59870;50.106;8.580;2022-10-30T01:14:06;13.03;;;11.50;;
11245;SDS011;59870;50.106;8.580;2022-10-30T01:16:55;12.37;;;11.13;;
11245;SDS011;59870;50.106;8.580;2022-10-30T01:19:38;14.80;;;12.47;;
11245;SDS011;59870;50.106;8.580;2022-10-30T01:31:17;12.90;;;11.70;;
11245;SDS011;59870;50.106;8.580;2022-10-30T01:34:11;13.53;;;10.50;;
11245;SDS011;59870;50.106;8.580;2022-10-30T01:37:21;14.00;;;12.53;;
11245;SDS011;59870;50.106;8.580;2022-10-30T01:40:03;12.30;;;11.00;;
11245;SDS011;59870;50.106;8.580;2022-10-30T01:45:24;10.97;;;10.17;;
11245;SDS011;59870;50.106;8.580;2022-10-30T01:51:03;11.37;;;10.17;;
11245;SDS011;59870;50.106;8.580;2022-10-30T01:56:32;11.47;;;10.33;;
11245;SDS011;59870;50.106;8.580;2022-10-30T02:01:50;11.90;;;10.63;;
11245;SDS011;59870;50.106;8.580;2022-10-30T02:04:18;11.90;;;10.90;;
11245;SDS011;59870;50.106;8.580;2022-10-30T02:06:49;12.23;;;11.13;;
11245;SDS011;59870;50.106;8.580;2022-10-30T02:09:17;13.50;;;10.77;;
11245;SDS011;59870;50.106;8.580;2022-10-30T02:11:48;11.77;;;10.57;;
11245;SDS011;59870;50.106;8.580;2022-10-30T02:14:26;12.57;;;10.77;;
11245;SDS011;59870;50.106;8.580;2022-10-30T02:16:57;12.00;;;9.57;;
11245;SDS011;59870;50.106;8.580;2022-10-30T02:19:28;11.27;;;10.27;;
11245;SDS011;59870;50.106;8.580;2022-10-30T02:21:56;10.00;;;9.17;;
11245;SDS011;59870;50.106;8.580;2022-10-30T02:24:23;11.70;;;10.47;;
11245;SDS011;59870;50.106;8.580;2022-10-30T02:26:51;12.73;;;10.57;;
11245;SDS011;59870;50.106;8.580;2022-10-30T02:29:18;11.97;;;10.63;;
11245;SDS011;59870;50.106;8.580;2022-10-30T02:31:47;11.17;;;10.03;;
11245;SDS011;59870;50.106;8.580;2022-10-30T02:34:15;13.07;;;10.37;;
11245;SDS011;59870;50.106;8.580;2022-10-30T02:36:43;15.00;;;11.07;;
11245;SDS011;59870;50.106;8.580;2022-10-30T02:39:10;12.37;;;10.17;;
11245;SDS011;59870;50.106;8.580;2022-10-30T02:41:38;10.27;;;9.37;;
11245;SDS011;59870;50.106;8.580;2022-10-30T02:44:06;13.40;;;10.97;;
11245;SDS011;59870;50.106;8.580;2022-10-30T02:46:34;17.03;;;11.63;;
11245;SDS011;59870;50.106;8.580;2022-10-30T02:49:02;12.87;;;11.67;;
11245;SDS011;59870;50.106;8.580;2022-10-30T02:51:30;12.83;;;11.73;;
11245;SDS011;59870;50.106;8.580;2022-10-30T02:53:58;12.53;;;11.37;;
11245;SDS011;59870;50.106;8.580;2022-10-30T02:56:27;14.07;;;12.57;;
11245;SDS011;59870;50.106;8.580;2022-10-30T02:58:55;13.40;;;12.00;;
11245;SDS011;59870;50.106;8.580;2022-10-30T03:01:22;13.37;;;12.00;;
11245;SDS011;59870;50.106;8.580;2022-10-30T03:03:54;14.20;;;11.47;;
11245;SDS011;59870;50.106;8.580;2022-10-30T03:06:22;12.80;;;11.60;;
11245;SDS011;59870;50.106;8.580;2022-10-30T03:08:50;13.53;;;12.20;;
11245;SDS011;59870;50.106;8.580;2022-10-30T03:11:18;13.40;;;11.90;;
11245;SDS011;59870;50.106;8.580;2022-10-30T03:13:47;14.00;;;12.37;;
11245;SDS011;59870;50.106;8.580;2022-10-30T03:16:16;18.67;;;12.17;;
11245;SDS011;59870;50.106;8.580;2022-10-30T03:18:48;14.13;;;11.37;;
11245;SDS011;59870;50.106;8.580;2022-10-30T03:21:18;13.07;;;11.87;;
11245;SDS011;59870;50.106;8.580;2022-10-30T03:23:46;13.30;;;12.07;;
11245;SDS011;59870;50.106;8.580;2022-10-30T03:26:17;12.73;;;11.53;;
11245;SDS011;59870;50.106;8.580;2022-10-30T03:28:56;12.27;;;11.23;;
11245;SDS011;59870;50.106;8.580;2022-10-30T03:31:24;12.13;;;10.90;;
11245;SDS011;59870;50.106;8.580;2022-10-30T03:34:06;12.43;;;9.97;;
11245;SDS011;59870;50.106;8.580;2022-10-30T03:36:34;14.40;;;10.20;;
11245;SDS011;59870;50.106;8.580;2022-10-30T03:39:02;10.63;;;9.73;;
11245;SDS011;59870;50.106;8.580;2022-10-30T03:41:31;12.07;;;10.87;;
11245;SDS011;59870;50.106;8.580;2022-10-30T03:44:00;12.53;;;11.23;;
11245;SDS011;59870;50.106;8.580;2022-10-30T03:46:27;11.57;;;10.40;;
11245;SDS011;59870;50.106;8.580;2022-10-30T03:49:09;11.07;;;10.00;;
11245;SDS011;59870;50.106;8.580;2022-10-30T03:51:37;11.17;;;10.33;;
11245;SDS011;59870;50.106;8.580;2022-10-30T03:54:05;11.60;;;10.53;;
11245;SDS011;59870;50.106;8.580;2022-10-30T03:56:33;10.27;;;9.37;;
11245;SDS011;59870;50.106;8.580;2022-10-30T03:59:02;10.83;;;10.00;;
11245;SDS011;59870;50.106;8.580;2022-10-30T04:01:29;12.50;;;10.40;;
11245;SDS011;59870;50.106;8.580;2022-10-30T04:03:58;11.00;;;10.00;;
11245;SDS011;59870;50.106;8.580;2022-10-30T04:06:26;15.27;;;11.90;;
11245;SDS011;59870;50.106;8.580;2022-10-30T04:08:55;10.20;;;9.17;;
11245;SDS011;59870;50.106;8.580;2022-10-30T04:11:23;10.13;;;9.17;;
11245;SDS011;59870;50.106;8.580;2022-10-30T04:13:51;12.33;;;9.93;;
11245;SDS011;59870;50.106;8.580;2022-10-30T04:16:18;10.67;;;9.57;;
11245;SDS011;59870;50.106;8.580;2022-10-30T04:18:46;11.63;;;9.80;;
11245;SDS011;59870;50.106;8.580;2022-10-30T04:21:14;11.43;;;9.87;;
11245;SDS011;59870;50.106;8.580;2022-10-30T04:23:42;14.60;;;9.53;;
11245;SDS011;59870;50.106;8.580;2022-10-30T04:26:10;11.37;;;10.37;;
11245;SDS011;59870;50.106;8.580;2022-10-30T04:28:39;14.10;;;10.93;;
11245;SDS011;59870;50.106;8.580;2022-10-30T04:31:07;10.90;;;10.03;;
11245;SDS011;59870;50.106;8.580;2022-10-30T04:33:36;11.00;;;10.07;;
11245;SDS011;59870;50.106;8.580;2022-10-30T04:36:03;11.70;;;10.53;;
11245;SDS011;59870;50.106;8.580;2022-10-30T04:38:31;11.00;;;9.87;;
11245;SDS011;59870;50.106;8.580;2022-10-30T04:41:00;9.90;;;9.00;;
11245;SDS011;59870;50.106;8.580;2022-10-30T04:43:44;14.53;;;8.40;;
11245;SDS011;59870;50.106;8.580;2022-10-30T04:46:14;10.10;;;9.13;;
11245;SDS011;59870;50.106;8.580;2022-10-30T04:48:43;9.60;;;8.80;;
11245;SDS011;59870;50.106;8.580;2022-10-30T04:51:11;10.50;;;9.50;;
11245;SDS011;59870;50.106;8.580;2022-10-30T04:53:40;10.17;;;9.27;;
11245;SDS011;59870;50.106;8.580;2022-10-30T04:56:11;10.33;;;8.97;;
11245;SDS011;59870;50.106;8.580;2022-10-30T04:58:39;10.30;;;9.30;;
11245;SDS011;59870;50.106;8.580;2022-10-30T05:01:07;13.47;;;9.47;;
11245;SDS011;59870;50.106;8.580;2022-10-30T05:03:36;9.83;;;8.77;;
11245;SDS011;59870;50.106;8.580;2022-10-30T05:06:21;9.30;;;8.53;;
11245;SDS011;59870;50.106;8.580;2022-10-30T05:08:51;10.23;;;9.13;;
11245;SDS011;59870;50.106;8.580;2022-10-30T05:11:32;9.83;;;8.80;;
11245;SDS011;59870;50.106;8.580;2022-10-30T05:13:59;11.10;;;9.90;;
11245;SDS011;59870;50.106;8.580;2022-10-30T05:16:27;9.53;;;8.57;;
11245;SDS011;59870;50.106;8.580;2022-10-30T05:18:57;10.03;;;9.13;;
11245;SDS011;59870;50.106;8.580;2022-10-30T05:21:25;10.53;;;9.37;;
11245;SDS011;59870;50.106;8.580;2022-10-30T05:23:53;11.47;;;10.40;;
11245;SDS011;59870;50.106;8.580;2022-10-30T05:26:22;11.90;;;10.47;;
11245;SDS011;59870;50.106;8.580;2022-10-30T05:28:51;11.17;;;10.17;;
11245;SDS011;59870;50.106;8.580;2022-10-30T05:31:18;14.13;;;9.90;;
11245;SDS011;59870;50.106;8.580;2022-10-30T05:34:09;11.90;;;10.70;;
11245;SDS011;59870;50.106;8.580;2022-10-30T05:36:41;12.00;;;11.00;;
11245;SDS011;59870;50.106;8.580;2022-10-30T05:39:11;12.13;;;11.03;;
11245;SDS011;59870;50.106;8.580;2022-10-30T05:41:42;12.13;;;11.00;;
11245;SDS011;59870;50.106;8.580;2022-10-30T05:44:10;11.90;;;10.83;;
11245;SDS011;59870;50.106;8.580;2022-10-30T05:46:40;14.23;;;11.17;;
11245;SDS011;59870;50.106;8.580;2022-10-30T05:49:22;11.37;;;10.33;;
11245;SDS011;59870;50.106;8.580;2022-10-30T05:51:50;13.57;;;9.60;;
11245;SDS011;59870;50.106;8.580;2022-10-30T05:54:18;10.63;;;9.63;;
11245;SDS011;59870;50.106;8.580;2022-10-30T05:56:58;11.90;;;10.67;;
11245;SDS011;59870;50.106;8.580;2022-10-30T05:59:26;12.17;;;9.70;;
11245;SDS011;59870;50.106;8.580;2022-10-30T06:01:54;11.27;;;10.00;;
11245;SDS011;59870;50.106;8.580;2022-10-30T06:04:23;11.03;;;9.90;;
11245;SDS011;59870;50.106;8.580;2022-10-30T06:06:53;10.03;;;9.03;;
11245;SDS011;59870;50.106;8.580;2022-10-30T06:09:21;12.37;;;10.00;;
11245;SDS011;59870;50.106;8.580;2022-10-30T06:12:00;10.37;;;8.83;;
11245;SDS011;59870;50.106;8.580;2022-10-30T06:14:47;10.60;;;9.33;;
11245;SDS011;59870;50.106;8.580;2022-10-30T06:17:16;10.97;;;9.97;;
11245;SDS011;59870;50.106;8.580;2022-10-30T06:19:59;17.37;;;9.43;;
11245;SDS011;59870;50.106;8.580;2022-10-30T06:25:33;9.83;;;8.93;;
11245;SDS011;59870;50.106;8.580;2022-10-30T06:28:20;10.43;;;9.33;;
11245;SDS011;59870;50.106;8.580;2022-10-30T06:30:47;9.70;;;8.83;;
11245;SDS011;59870;50.106;8.580;2022-10-30T06:33:15;11.27;;;9.77;;
11245;SDS011;59870;50.106;8.580;2022-10-30T06:35:48;9.23;;;8.43;;
11245;SDS011;59870;50.106;8.580;2022-10-30T06:38:17;11.47;;;10.37;;
11245;SDS011;59870;50.106;8.580;2022-10-30T06:40:47;13.23;;;10.87;;
11245;SDS011;59870;50.106;8.580;2022-10-30T06:43:47;18.27;;;11.13;;
11245;SDS011;59870;50.106;8.580;2022-10-30T06:46:19;12.87;;;11.33;;
11245;SDS011;59870;50.106;8.580;2022-10-30T06:48:46;12.90;;;11.20;;
11245;SDS011;59870;50.106;8.580;2022-10-30T06:51:15;13.70;;;12.27;;
11245;SDS011;59870;50.106;8.580;2022-10-30T06:53:45;13.60;;;12.20;;
11245;SDS011;59870;50.106;8.580;2022-10-30T06:56:31;19.73;;;12.97;;
11245;SDS011;59870;50.106;8.580;2022-10-30T06:59:13;16.57;;;14.27;;
11245;SDS011;59870;50.106;8.580;2022-10-30T07:01:50;13.53;;;12.27;;
11245;SDS011;59870;50.106;8.580;2022-10-30T07:04:35;12.57;;;11.43;;
11245;SDS011;59870;50.106;8.580;2022-10-30T07:07:03;13.50;;;11.27;;
11245;SDS011;59870;50.106;8.580;2022-10-30T07:09:30;12.47;;;11.27;;
11245;SDS011;59870;50.106;8.580;2022-10-30T07:11:58;12.00;;;10.80;;
11245;SDS011;59870;50.106;8.580;2022-10-30T07:14:38;12.00;;;10.90;;
11245;SDS011;59870;50.106;8.580;2022-10-30T07:17:26;13.00;;;10.63;;
11245;SDS011;59870;50.106;8.580;2022-10-30T07:19:57;12.43;;;10.10;;
11245;SDS011;59870;50.106;8.580;2022-10-30T07:22:25;11.50;;;10.30;;
11245;SDS011;59870;50.106;8.580;2022-10-30T07:24:53;14.10;;;10.20;;
11245;SDS011;59870;50.106;8.580;2022-10-30T07:27:51;10.90;;;10.03;;
11245;SDS011;59870;50.106;8.580;2022-10-30T07:30:51;10.67;;;9.87;;
11245;SDS011;59870;50.106;8.580;2022-10-30T07:33:38;12.17;;;9.93;;
11245;SDS011;59870;50.106;8.580;2022-10-30T07:36:17;13.10;;;9.97;;
11245;SDS011;59870;50.106;8.580;2022-10-30T07:38:46;10.67;;;9.73;;
11245;SDS011;59870;50.106;8.580;2022-10-30T07:41:29;11.53;;;10.53;;
11245;SDS011;59870;50.106;8.580;2022-10-30T07:44:23;11.83;;;10.23;;
11245;SDS011;59870;50.106;8.580;2022-10-30T07:47:09;11.53;;;10.60;;
11245;SDS011;59870;50.106;8.580;2022-10-30T07:49:49;10.93;;;9.97;;
11245;SDS011;59870;50.106;8.580;2022-10-30T07:52:17;10.93;;;9.93;;
11245;SDS011;59870;50.106;8.580;2022-10-30T07:54:47;11.27;;;10.30;;
11245;SDS011;59870;50.106;8.580;2022-10-30T07:57:38;11.80;;;10.70;;
11245;SDS011;59870;50.106;8.580;2022-10-30T08:00:26;12.40;;;10.80;;
11245;SDS011;59870;50.106;8.580;2022-10-30T08:03:12;13.30;;;11.83;;
11245;SDS011;59870;50.106;8.580;2022-10-30T08:06:03;14.93;;;12.80;;
11245;SDS011;59870;50.106;8.580;2022-10-30T08:08:33;13.00;;;11.67;;
11245;SDS011;59870;50.106;8.580;2022-10-30T08:11:24;12.60;;;11.23;;
11245;SDS011;59870;50.106;8.580;2022-10-30T08:13:53;13.37;;;12.13;;
11245;SDS011;59870;50.106;8.580;2022-10-30T08:16:20;13.47;;;11.70;;
11245;SDS011;59870;50.106;8.580;2022-10-30T08:18:49;12.83;;;11.63;;
11245;SDS011;59870;50.106;8.580;2022-10-30T08:21:22;14.73;;;13.23;;
11245;SDS011;59870;50.106;8.580;2022-10-30T08:24:09;17.47;;;13.43;;
11245;SDS011;59870;50.106;8.580;2022-10-30T08:26:44;13.80;;;12.50;;
11245;SDS011;59870;50.106;8.580;2022-10-30T08:29:12;14.43;;;12.30;;
11245;SDS011;59870;50.106;8.580;2022-10-30T08:31:40;16.03;;;13.50;;
11245;SDS011;59870;50.106;8.580;2022-10-30T08:34:23;18.37;;;11.90;;
11245;SDS011;59870;50.106;8.580;2022-10-30T08:36:54;14.83;;;13.30;;
11245;SDS011;59870;50.106;8.580;2022-10-30T08:39:23;14.80;;;12.57;;
11245;SDS011;59870;50.106;8.580;2022-10-30T08:41:57;13.97;;;12.27;;
11245;SDS011;59870;50.106;8.580;2022-10-30T08:44:29;13.10;;;11.93;;
11245;SDS011;59870;50.106;8.580;2022-10-30T08:47:20;16.53;;;12.10;;
11245;SDS011;59870;50.106;8.580;2022-10-30T08:49:47;15.40;;;13.17;;
11245;SDS011;59870;50.106;8.580;2022-10-30T08:52:18;15.47;;;13.10;;
11245;SDS011;59870;50.106;8.580;2022-10-30T08:54:51;13.07;;;11.83;;
11245;SDS011;59870;50.106;8.580;2022-10-30T08:57:22;13.73;;;12.37;;
11245;SDS011;59870;50.106;8.580;2022-10-30T08:59:51;14.23;;;12.83;;
11245;SDS011;59870;50.106;8.580;2022-10-30T09:02:38;13.77;;;12.47;;
11245;SDS011;59870;50.106;8.580;2022-10-30T09:05:26;15.10;;;12.87;;
11245;SDS011;59870;50.106;8.580;2022-10-30T09:08:13;14.53;;;13.07;;
11245;SDS011;59870;50.106;8.580;2022-10-30T09:10:58;14.77;;;13.20;;
11245;SDS011;59870;50.106;8.580;2022-10-30T09:13:26;14.77;;;13.33;;
11245;SDS011;59870;50.106;8.580;2022-10-30T09:16:01;16.00;;;13.90;;
11245;SDS011;59870;50.106;8.580;2022-10-30T09:18:32;18.23;;;13.07;;
11245;SDS011;59870;50.106;8.580;2022-10-30T09:21:00;19.23;;;13.43;;
11245;SDS011;59870;50.106;8.580;2022-10-30T09:23:35;13.27;;;12.07;;
11245;SDS011;59870;50.106;8.580;2022-10-30T09:26:32;17.10;;;12.53;;
11245;SDS011;59870;50.106;8.580;2022-10-30T09:29:09;14.57;;;12.73;;
11245;SDS011;59870;50.106;8.580;2022-10-30T09:31:40;17.40;;;13.87;;
11245;SDS011;59870;50.106;8.580;2022-10-30T09:34:12;13.80;;;12.40;;
11245;SDS011;59870;50.106;8.580;2022-10-30T09:36:44;14.60;;;12.50;;
11245;SDS011;59870;50.106;8.580;2022-10-30T09:39:19;13.13;;;12.03;;
11245;SDS011;59870;50.106;8.580;2022-10-30T09:53:33;13.53;;;11.90;;
11245;SDS011;59870;50.106;8.580;2022-10-30T09:56:30;13.03;;;11.33;;
11245;SDS011;59870;50.106;8.580;2022-10-30T10:08:04;12.50;;;10.17;;
11245;SDS011;59870;50.106;8.580;2022-10-30T10:11:00;15.93;;;10.33;;
11245;SDS011;59870;50.106;8.580;2022-10-30T10:16:28;15.20;;;10.93;;
11245;SDS011;59870;50.106;8.580;2022-10-30T10:19:01;11.60;;;10.43;;
11245;SDS011;59870;50.106;8.580;2022-10-30T10:21:52;12.23;;;11.03;;
11245;SDS011;59870;50.106;8.580;2022-10-30T10:24:35;11.53;;;10.33;;
11245;SDS011;59870;50.106;8.580;2022-10-30T10:27:09;11.53;;;10.53;;
11245;SDS011;59870;50.106;8.580;2022-10-30T10:29:52;16.30;;;11.20;;
11245;SDS011;59870;50.106;8.580;2022-10-30T10:35:17;14.87;;;10.33;;
11245;SDS011;59870;50.106;8.580;2022-10-30T10:41:03;10.70;;;9.60;;
11245;SDS011;59870;50.106;8.580;2022-10-30T10:44:05;12.53;;;9.43;;
11245;SDS011;59870;50.106;8.580;2022-10-30T10:50:00;10.67;;;8.70;;
11245;SDS011;59870;50.106;8.580;2022-10-30T10:52:50;13.83;;;9.57;;
11245;SDS011;59870;50.106;8.580;2022-10-30T10:55:25;11.40;;;9.97;;
11245;SDS011;59870;50.106;8.580;2022-10-30T10:57:58;14.03;;;9.40;;
11245;SDS011;59870;50.106;8.580;2022-10-30T11:00:55;13.60;;;9.50;;
11245;SDS011;59870;50.106;8.580;2022-10-30T11:06:25;10.67;;;9.17;;
11245;SDS011;59870;50.106;8.580;2022-10-30T11:08:57;17.67;;;8.80;;
11245;SDS011;59870;50.106;8.580;2022-10-30T11:11:48;11.97;;;8.97;;
11245;SDS011;59870;50.106;8.580;2022-10-30T11:14:19;11.53;;;8.97;;
11245;SDS011;59870;50.106;8.580;2022-10-30T11:19:48;11.00;;;8.00;;
11245;SDS011;59870;50.106;8.580;2022-10-30T11:22:29;12.63;;;9.43;;
11245;SDS011;59870;50.106;8.580;2022-10-30T11:27:58;10.50;;;7.60;;
11245;SDS011;59870;50.106;8.580;2022-10-30T11:30:28;9.87;;;8.50;;
11245;SDS011;59870;50.106;8.580;2022-10-30T11:32:56;12.10;;;8.70;;
11245;SDS011;59870;50.106;8.580;2022-10-30T11:35:26;12.33;;;7.83;;
11245;SDS011;59870;50.106;8.580;2022-10-30T11:38:15;8.57;;;7.73;;
11245;SDS011;59870;50.106;8.580;2022-10-30T11:40:46;9.23;;;7.33;;
11245;SDS011;59870;50.106;8.580;2022-10-30T11:43:18;9.67;;;7.20;;
11245;SDS011;59870;50.106;8.580;2022-10-30T11:45:48;10.53;;;7.83;;
11245;SDS011;59870;50.106;8.580;2022-10-30T11:48:38;21.33;;;7.80;;
11245;SDS011;59870;50.106;8.580;2022-10-30T11:51:05;8.43;;;6.77;;
11245;SDS011;59870;50.106;8.580;2022-10-30T11:53:34;7.57;;;6.93;;
11245;SDS011;59870;50.106;8.580;2022-10-30T11:56:15;8.63;;;7.30;;
11245;SDS011;59870;50.106;8.580;2022-10-30T11:58:48;12.93;;;7.40;;
11245;SDS011;59870;50.106;8.580;2022-10-30T12:01:29;14.83;;;7.03;;
11245;SDS011;59870;50.106;8.580;2022-10-30T12:04:12;8.90;;;8.00;;
11245;SDS011;59870;50.106;8.580;2022-10-30T12:06:42;8.10;;;7.00;;
11245;SDS011;59870;50.106;8.580;2022-10-30T12:09:14;7.23;;;6.40;;
11245;SDS011;59870;50.106;8.580;2022-10-30T12:11:46;12.13;;;7.63;;
11245;SDS011;59870;50.106;8.580;2022-10-30T12:14:22;10.87;;;7.53;;
11245;SDS011;59870;50.106;8.580;2022-10-30T12:16:55;8.33;;;7.60;;
11245;SDS011;59870;50.106;8.580;2022-10-30T12:19:23;8.60;;;7.50;;
11245;SDS011;59870;50.106;8.580;2022-10-30T12:21:52;11.33;;;7.67;;
11245;SDS011;59870;50.106;8.580;2022-10-30T12:26:53;7.73;;;6.90;;
11245;SDS011;59870;50.106;8.580;2022-10-30T12:29:26;8.63;;;6.93;;
11245;SDS011;59870;50.106;8.580;2022-10-30T12:32:32;12.37;;;7.10;;
11245;SDS011;59870;50.106;8.580;2022-10-30T12:35:20;9.57;;;7.00;;
11245;SDS011;59870;50.106;8.580;2022-10-30T12:38:14;9.00;;;7.57;;
11245;SDS011;59870;50.106;8.580;2022-10-30T12:43:32;6.90;;;6.27;;
11245;SDS011;59870;50.106;8.580;2022-10-30T12:46:26;7.80;;;7.10;;
11245;SDS011;59870;50.106;8.580;2022-10-30T12:49:05;9.13;;;7.10;;
11245;SDS011;59870;50.106;8.580;2022-10-30T12:57:16;13.23;;;7.13;;
11245;SDS011;59870;50.106;8.580;2022-10-30T13:02:32;9.60;;;6.53;;
11245;SDS011;59870;50.106;8.580;2022-10-30T13:08:06;9.47;;;6.27;;
11245;SDS011;59870;50.106;8.580;2022-10-30T13:13:40;6.07;;;5.53;;
11245;SDS011;59870;50.106;8.580;2022-10-30T13:16:12;6.63;;;6.03;;
11245;SDS011;59870;50.106;8.580;2022-10-30T13:18:43;7.53;;;6.10;;
11245;SDS011;59870;50.106;8.580;2022-10-30T13:21:19;6.93;;;6.03;;
11245;SDS011;59870;50.106;8.580;2022-10-30T13:30:14;6.43;;;5.93;;
11245;SDS011;59870;50.106;8.580;2022-10-30T13:35:40;10.97;;;6.53;;
11245;SDS011;59870;50.106;8.580;2022-10-30T13:38:23;7.43;;;6.43;;
11245;SDS011;59870;50.106;8.580;2022-10-30T13:49:13;7.33;;;5.90;;
11245;SDS011;59870;50.106;8.580;2022-10-30T13:52:07;7.93;;;6.33;;
11245;SDS011;59870;50.106;8.580;2022-10-30T13:54:42;8.47;;;6.70;;
11245;SDS011;59870;50.106;8.580;2022-10-30T14:00:30;6.87;;;5.83;;
11245;SDS011;59870;50.106;8.580;2022-10-30T14:03:22;8.00;;;5.80;;
11245;SDS011;59870;50.106;8.580;2022-10-30T14:11:34;6.50;;;5.87;;
11245;SDS011;59870;50.106;8.580;2022-10-30T14:14:47;7.47;;;5.80;;
11245;SDS011;59870;50.106;8.580;2022-10-30T14:22:39;6.37;;;5.77;;
11245;SDS011;59870;50.106;8.580;2022-10-30T14:25:16;7.30;;;6.80;;
11245;SDS011;59870;50.106;8.580;2022-10-30T14:27:43;8.10;;;6.37;;
11245;SDS011;59870;50.106;8.580;2022-10-30T14:30:21;7.17;;;6.57;;
11245;SDS011;59870;50.106;8.580;2022-10-30T14:32:54;7.53;;;6.83;;
11245;SDS011;59870;50.106;8.580;2022-10-30T14:35:26;11.97;;;6.60;;
11245;SDS011;59870;50.106;8.580;2022-10-30T14:45:57;8.47;;;6.57;;
11245;SDS011;59870;50.106;8.580;2022-10-30T14:48:31;8.20;;;5.80;;
11245;SDS011;59870;50.106;8.580;2022-10-30T14:56:44;7.90;;;6.00;;
11245;SDS011;59870;50.106;8.580;2022-10-30T15:06:59;7.30;;;6.70;;
11245;SDS011;59870;50.106;8.580;2022-10-30T15:15:01;7.70;;;6.40;;
11245;SDS011;59870;50.106;8.580;2022-10-30T15:17:33;8.20;;;6.50;;
11245;SDS011;59870;50.106;8.580;2022-10-30T15:20:05;7.03;;;6.50;;
11245;SDS011;59870;50.106;8.580;2022-10-30T15:22:40;11.73;;;7.27;;
11245;SDS011;59870;50.106;8.580;2022-10-30T15:25:17;7.10;;;6.33;;
11245;SDS011;59870;50.106;8.580;2022-10-30T15:27:48;8.97;;;6.90;;
11245;SDS011;59870;50.106;8.580;2022-10-30T15:30:19;8.10;;;7.03;;
11245;SDS011;59870;50.106;8.580;2022-10-30T15:32:48;7.47;;;6.47;;
11245;SDS011;59870;50.106;8.580;2022-10-30T15:35:20;9.60;;;6.57;;
11245;SDS011;59870;50.106;8.580;2022-10-30T15:38:03;14.37;;;7.30;;
11245;SDS011;59870;50.106;8.580;2022-10-30T15:40:33;7.20;;;6.50;;
11245;SDS011;59870;50.106;8.580;2022-10-30T15:43:03;10.83;;;9.73;;
11245;SDS011;59870;50.106;8.580;2022-10-30T15:50:39;14.53;;;9.70;;
11245;SDS011;59870;50.106;8.580;2022-10-30T15:53:15;10.30;;;9.30;;
11245;SDS011;59870;50.106;8.580;2022-10-30T15:55:49;12.13;;;9.57;;
11245;SDS011;59870;50.106;8.580;2022-10-30T15:58:19;10.13;;;9.23;;
11245;SDS011;59870;50.106;8.580;2022-10-30T16:00:55;13.47;;;9.23;;
11245;SDS011;59870;50.106;8.580;2022-10-30T16:03:25;11.93;;;9.20;;
11245;SDS011;59870;50.106;8.580;2022-10-30T16:06:12;14.97;;;10.17;;
11245;SDS011;59870;50.106;8.580;2022-10-30T16:08:44;14.60;;;11.83;;
11245;SDS011;59870;50.106;8.580;2022-10-30T16:11:13;15.63;;;13.97;;
11245;SDS011;59870;50.106;8.580;2022-10-30T16:13:42;18.73;;;12.87;;
11245;SDS011;59870;50.106;8.580;2022-10-30T16:16:19;13.67;;;12.20;;
11245;SDS011;59870;50.106;8.580;2022-10-30T16:18:58;17.90;;;14.93;;
11245;SDS011;59870;50.106;8.580;2022-10-30T16:21:28;18.80;;;15.97;;
11245;SDS011;59870;50.106;8.580;2022-10-30T16:23:57;20.80;;;15.20;;
11245;SDS011;59870;50.106;8.580;2022-10-30T16:26:34;17.43;;;14.30;;
11245;SDS011;59870;50.106;8.580;2022-10-30T16:31:40;19.77;;;14.50;;
11245;SDS011;59870;50.106;8.580;2022-10-30T16:34:21;17.20;;;13.53;;
11245;SDS011;59870;50.106;8.580;2022-10-30T16:37:03;17.63;;;14.17;;
11245;SDS011;59870;50.106;8.580;2022-10-30T16:39:32;18.30;;;13.77;;
11245;SDS011;59870;50.106;8.580;2022-10-30T16:42:02;14.40;;;13.00;;
11245;SDS011;59870;50.106;8.580;2022-10-30T16:44:32;20.77;;;14.10;;
11245;SDS011;59870;50.106;8.580;2022-10-30T16:49:45;16.07;;;13.60;;
11245;SDS011;59870;50.106;8.580;2022-10-30T16:52:30;16.20;;;12.67;;
11245;SDS011;59870;50.106;8.580;2022-10-30T16:55:03;19.37;;;13.40;;
11245;SDS011;59870;50.106;8.580;2022-10-30T16:57:42;16.77;;;14.00;;
11245;SDS011;59870;50.106;8.580;2022-10-30T17:00:18;19.47;;;14.33;;
11245;SDS011;59870;50.106;8.580;2022-10-30T17:02:53;16.93;;;15.07;;
11245;SDS011;59870;50.106;8.580;2022-10-30T17:05:24;22.37;;;15.87;;
11245;SDS011;59870;50.106;8.580;2022-10-30T17:07:57;21.87;;;16.17;;
11245;SDS011;59870;50.106;8.580;2022-10-30T17:10:31;19.50;;;16.50;;
11245;SDS011;59870;50.106;8.580;2022-10-30T17:18:56;19.40;;;14.47;;
11245;SDS011;59870;50.106;8.580;2022-10-30T17:21:47;22.07;;;15.30;;
11245;SDS011;59870;50.106;8.580;2022-10-30T17:24:19;16.63;;;14.93;;
11245;SDS011;59870;50.106;8.580;2022-10-30T17:26:55;15.73;;;12.53;;
11245;SDS011;59870;50.106;8.580;2022-10-30T17:32:05;18.13;;;14.57;;
11245;SDS011;59870;50.106;8.580;2022-10-30T17:34:42;15.03;;;13.43;;
11245;SDS011;59870;50.106;8.580;2022-10-30T17:37:09;16.90;;;13.53;;
11245;SDS011;59870;50.106;8.580;2022-10-30T17:39:37;18.20;;;14.07;;
11245;SDS011;59870;50.106;8.580;2022-10-30T17:42:04;17.00;;;13.03;;
11245;SDS011;59870;50.106;8.580;2022-10-30T17:44:32;15.13;;;12.00;;
11245;SDS011;59870;50.106;8.580;2022-10-30T17:47:07;12.97;;;11.37;;
11245;SDS011;59870;50.106;8.580;2022-10-30T17:49:42;15.07;;;12.17;;
11245;SDS011;59870;50.106;8.580;2022-10-30T17:52:12;18.97;;;13.10;;